Time;durP1;ratioP1;P1;durP2;ratioP2;P2;SDS_P1;SDS_P2;PMS_P1;PMS_P2;Temp;Humidity;BMP_temperature;BMP_pressure;BME280_temperature;BME280_humidity;BME280_pressure;Samples;Min_cycle;Max_cycle;Signal;HPM_P1;HPM_P2
2023/04/01 00:00:26;;;;;;;1999.90;999.90;;;;;;;7.31;100.00;96727.72;5133559;27;20014;-75
2023/04/01 00:02:52;;;;;;;1999.90;999.90;;;;;;;7.33;100.00;96720.06;5134365;27;20034;-76
2023/04/01 00:05:17;;;;;;;1999.90;999.90;;;;;;;7.25;100.00;96701.75;5134458;27;20011;-76
2023/04/01 00:07:43;;;;;;;1999.90;999.90;;;;;;;7.25;100.00;96707.19;5134245;27;20142;-76
2023/04/01 00:10:11;;;;;;;1999.90;999.90;;;;;;;7.26;100.00;96714.25;5134336;27;20020;-76
2023/04/01 00:12:37;;;;;;;1999.90;999.90;;;;;;;7.24;100.00;96708.28;5134546;27;20542;-76
2023/04/01 00:15:10;;;;;;;1999.90;999.90;;;;;;;7.33;100.00;96706.47;5135013;27;20063;-76
2023/04/01 00:17:36;;;;;;;1999.90;999.90;;;;;;;7.34;100.00;96704.56;5134761;27;20027;-76
2023/04/01 00:20:02;;;;;;;1999.90;999.90;;;;;;;7.25;100.00;96687.34;5135233;27;20071;-77
2023/04/01 00:22:28;;;;;;;1999.90;999.90;;;;;;;7.18;100.00;96685.03;5136320;27;20103;-76
2023/04/01 00:24:53;;;;;;;1999.90;999.90;;;;;;;7.21;100.00;96681.72;5135992;27;20156;-75
2023/04/01 00:27:19;;;;;;;1999.90;999.90;;;;;;;7.07;100.00;96661.09;5135522;27;20026;-76
2023/04/01 00:29:46;;;;;;;1999.90;999.90;;;;;;;7.05;100.00;96663.34;5134716;27;20495;-77
2023/04/01 00:32:12;;;;;;;1999.90;999.90;;;;;;;7.06;100.00;96671.16;5133412;27;20104;-77
2023/04/01 00:34:39;;;;;;;1999.90;999.90;;;;;;;7.02;100.00;96669.38;5114938;27;20076;-75
2023/04/01 00:37:05;;;;;;;1999.90;999.90;;;;;;;7.03;100.00;96665.53;5133289;27;20078;-76
2023/04/01 00:39:32;;;;;;;1999.90;999.90;;;;;;;6.97;100.00;96659.41;5132924;27;20053;-75
2023/04/01 00:41:59;;;;;;;1999.90;999.90;;;;;;;6.88;100.00;96670.19;5133098;27;20030;-76
2023/04/01 00:44:28;;;;;;;1999.90;999.90;;;;;;;6.91;100.00;96668.78;5133141;27;20024;-76
2023/04/01 00:46:53;;;;;;;1999.90;999.90;;;;;;;6.88;100.00;96658.50;5133268;27;20026;-76
2023/04/01 00:49:22;;;;;;;1999.90;999.90;;;;;;;6.86;100.00;96649.88;5133057;27;20391;-75
2023/04/01 00:51:53;;;;;;;1999.90;999.90;;;;;;;6.80;100.00;96656.50;5134075;27;20028;-76
2023/04/01 00:54:20;;;;;;;1999.90;999.90;;;;;;;6.71;100.00;96648.25;5133388;27;20071;-76
2023/04/01 00:56:55;;;;;;;1999.90;999.90;;;;;;;6.61;100.00;96655.81;5133071;27;20027;-75
2023/04/01 00:59:32;;;;;;;1999.90;999.90;;;;;;;6.69;100.00;96638.81;5132933;27;20463;-76
2023/04/01 01:01:57;;;;;;;1999.90;999.90;;;;;;;6.63;100.00;96634.56;5132834;27;20038;-77
2023/04/01 01:04:27;;;;;;;1999.90;999.90;;;;;;;6.53;100.00;96638.31;5132568;27;20016;-76
2023/04/01 01:07:17;;;;;;;1999.90;999.90;;;;;;;6.63;100.00;96640.81;5132623;27;20109;-75
2023/04/01 01:09:47;;;;;;;1999.90;999.90;;;;;;;6.55;100.00;96638.78;5132523;27;20034;-75
2023/04/01 01:12:28;;;;;;;1999.90;999.90;;;;;;;6.46;100.00;96641.41;5132189;27;20034;-75
2023/04/01 01:14:53;;;;;;;1999.90;999.90;;;;;;;6.60;100.00;96648.75;5132446;27;20034;-76
2023/04/01 01:17:44;;;;;;;1999.90;999.90;;;;;;;6.55;100.00;96657.03;5133051;27;20024;-76
2023/04/01 01:20:34;;;;;;;1999.90;999.90;;;;;;;6.53;100.00;96664.66;5132993;27;20039;-74
2023/04/01 01:23:36;;;;;;;1999.90;999.90;;;;;;;6.53;100.00;96656.50;5133492;27;20403;-75
2023/04/01 01:26:36;;;;;;;1999.90;999.90;;;;;;;6.53;100.00;96653.78;5133328;27;20030;-76
2023/04/01 01:29:27;;;;;;;1999.90;999.90;;;;;;;6.50;100.00;96654.38;5133408;27;20499;-75
2023/04/01 01:31:58;;;;;;;1999.90;999.90;;;;;;;6.44;100.00;96662.66;5133274;27;20038;-75
2023/04/01 01:34:45;;;;;;;1999.90;999.90;;;;;;;6.47;100.00;96653.91;5126974;27;20046;-75
2023/04/01 01:37:14;;;;;;;1999.90;999.90;;;;;;;6.44;100.00;96657.22;5130398;27;20030;-82
2023/04/01 01:39:43;;;;;;;1999.90;999.90;;;;;;;6.47;100.00;96658.53;5132988;27;20031;-76
2023/04/01 01:42:13;;;;;;;1999.90;999.90;;;;;;;6.46;100.00;96665.84;5111649;28;20016;-75
2023/04/01 01:44:40;;;;;;;1999.90;999.90;;;;;;;6.50;100.00;96667.97;5110925;28;20027;-74
2023/04/01 01:47:06;;;;;;;1999.90;999.90;;;;;;;6.46;100.00;96665.84;5118955;27;20019;-74
2023/04/01 01:49:33;;;;;;;1999.90;999.90;;;;;;;6.48;100.00;96671.78;5131663;27;20042;-75
2023/04/01 01:51:59;;;;;;;1999.90;999.90;;;;;;;6.43;100.00;96671.88;5131886;27;20027;-75
2023/04/01 01:54:25;;;;;;;1999.90;999.90;;;;;;;6.46;100.00;96679.44;5131506;27;20050;-74
2023/04/01 01:56:55;;;;;;;1999.90;999.90;;;;;;;6.47;100.00;96670.19;5131786;27;20100;-76
2023/04/01 01:59:24;;;;;;;1999.90;999.90;;;;;;;6.36;100.00;96682.34;5131409;27;20023;-74
2023/04/01 02:01:54;;;;;;;1999.90;999.90;;;;;;;6.33;100.00;96671.25;5132263;27;20034;-73
2023/04/01 02:04:22;;;;;;;1999.90;999.90;;;;;;;6.34;100.00;96670.97;5131691;27;20106;-76
2023/04/01 02:07:02;;;;;;;1999.90;999.90;;;;;;;6.41;100.00;96676.00;5131401;27;20072;-74
2023/04/01 02:09:29;;;;;;;1999.90;999.90;;;;;;;6.43;100.00;96688.19;5131068;27;20082;-74
2023/04/01 02:12:05;;;;;;;1999.90;999.90;;;;;;;6.49;100.00;96694.31;5140413;27;20079;-76
2023/04/01 02:14:54;;;;;;;1999.90;999.90;;;;;;;6.53;100.00;96691.81;5151016;27;20031;-75
2023/04/01 02:17:23;;;;;;;1999.90;999.90;;;;;;;6.29;100.00;96690.09;5152376;27;20031;-74
2023/04/01 02:19:57;;;;;;;1999.90;999.90;;;;;;;6.39;100.00;96694.53;5151612;27;20534;-74
2023/04/01 02:22:29;;;;;;;1999.90;999.90;;;;;;;6.29;100.00;96690.09;5152312;27;20501;-74
2023/04/01 02:24:59;;;;;;;1999.90;999.90;;;;;;;6.30;100.00;96688.97;5154201;27;20026;-74
2023/04/01 02:27:25;;;;;;;1999.90;999.90;;;;;;;6.26;100.00;96685.25;5156125;27;20802;-74
2023/04/01 02:29:52;;;;;;;1999.90;999.90;;;;;;;6.28;100.00;96688.47;5156032;27;20035;-74
2023/04/01 02:32:20;;;;;;;1999.90;999.90;;;;;;;6.19;100.00;96679.41;5155606;27;20084;-74
2023/04/01 02:34:47;;;;;;;1999.90;999.90;;;;;;;6.15;100.00;96672.94;5155154;27;20027;-74
2023/04/01 02:37:13;;;;;;;1999.90;999.90;;;;;;;6.16;100.00;96690.88;5155733;27;20478;-74
2023/04/01 02:39:39;;;;;;;1999.90;999.90;;;;;;;6.22;100.00;96689.66;5155930;27;20034;-74
2023/04/01 02:42:05;;;;;;;1999.90;999.90;;;;;;;6.16;100.00;96679.19;5156205;27;20018;-74
2023/04/01 02:44:31;;;;;;;1999.90;999.90;;;;;;;6.22;100.00;96684.25;5155845;27;20554;-74
2023/04/01 02:46:56;;;;;;;1999.90;999.90;;;;;;;6.23;100.00;96679.63;5155954;27;20056;-73
2023/04/01 02:49:21;;;;;;;1999.90;999.90;;;;;;;6.19;100.00;96684.84;5155970;27;20117;-74
2023/04/01 02:51:48;;;;;;;1999.90;999.90;;;;;;;6.22;100.00;96686.94;5156686;27;20030;-74
2023/04/01 02:54:13;;;;;;;1999.90;999.90;;;;;;;6.19;100.00;96682.13;5155835;27;20022;-74
2023/04/01 02:56:39;;;;;;;1999.90;999.90;;;;;;;6.28;100.00;96683.03;5155431;27;20531;-74
2023/04/01 02:59:04;;;;;;;1999.90;999.90;;;;;;;6.27;100.00;96680.59;5155520;27;20027;-74
2023/04/01 03:01:29;;;;;;;1999.90;999.90;;;;;;;6.28;100.00;96680.31;5155619;27;20423;-74
2023/04/01 03:03:55;;;;;;;1999.90;999.90;;;;;;;6.17;100.00;96675.38;5136643;27;20031;-74
2023/04/01 03:06:20;;;;;;;1999.90;999.90;;;;;;;6.24;100.00;96679.31;5138452;27;20357;-74
2023/04/01 03:08:46;;;;;;;1999.90;999.90;;;;;;;6.22;100.00;96678.81;5134180;27;20084;-74
2023/04/01 03:11:12;;;;;;;1999.90;999.90;;;;;;;6.17;100.00;96687.03;5134736;27;20027;-75
2023/04/01 03:13:37;;;;;;;1999.90;999.90;;;;;;;6.05;100.00;96673.13;5134324;27;20099;-74
2023/04/01 03:16:03;;;;;;;1999.90;999.90;;;;;;;5.94;100.00;96671.69;5134949;27;20023;-75
2023/04/01 03:18:28;;;;;;;1999.90;999.90;;;;;;;5.96;100.00;96671.38;5134721;27;20034;-74
2023/04/01 03:20:54;;;;;;;1999.90;999.90;;;;;;;5.94;100.00;96679.84;5132757;27;20027;-74
2023/04/01 03:23:20;;;;;;;1999.90;999.90;;;;;;;5.93;100.00;96667.38;5122799;27;20042;-74
2023/04/01 03:25:46;;;;;;;1999.90;999.90;;;;;;;5.92;100.00;96660.31;5134229;27;20034;-74
2023/04/01 03:28:13;;;;;;;1999.90;999.90;;;;;;;5.83;100.00;96653.94;5129100;27;20387;-74
2023/04/01 03:30:38;;;;;;;1999.90;999.90;;;;;;;5.91;100.00;96654.13;5134542;27;20386;-74
2023/04/01 03:33:04;;;;;;;1999.90;999.90;;;;;;;5.89;100.00;96652.78;5133834;27;20031;-74
2023/04/01 03:35:30;;;;;;;1999.90;999.90;;;;;;;5.88;100.00;96672.88;5115238;28;20038;-73
2023/04/01 03:37:55;;;;;;;1999.90;999.90;;;;;;;5.84;100.00;96674.53;5134169;27;20031;-76
2023/04/01 03:40:22;;;;;;;1999.90;999.90;;;;;;;5.81;100.00;96675.13;5133891;27;20394;-74
2023/04/01 03:42:47;;;;;;;1999.90;999.90;;;;;;;5.79;100.00;96663.78;5098599;27;20030;-74
2023/04/01 03:45:13;;;;;;;1999.90;999.90;;;;;;;5.71;100.00;96678.81;5134180;27;20027;-74
2023/04/01 03:47:39;;;;;;;1999.90;999.90;;;;;;;5.64;100.00;96672.19;5134334;27;20531;-74
2023/04/01 03:50:05;;;;;;;1999.90;999.90;;;;;;;5.64;100.00;96666.75;5134121;27;20044;-74
2023/04/01 03:52:31;;;;;;;1999.90;999.90;;;;;;;5.66;100.00;96675.38;5137618;27;20038;-85
2023/04/01 03:54:56;;;;;;;1999.90;999.90;;;;;;;5.60;100.00;96671.16;5137212;27;20391;-74
2023/04/01 03:57:22;;;;;;;1999.90;999.90;;;;;;;5.59;100.00;96662.19;5133960;27;20134;-74
2023/04/01 03:59:47;;;;;;;1999.90;999.90;;;;;;;5.60;100.00;96674.66;5133935;27;20027;-74
2023/04/01 04:02:12;;;;;;;1999.90;999.90;;;;;;;5.62;100.00;96679.78;5133786;27;20091;-73
2023/04/01 04:04:38;;;;;;;1999.90;999.90;;;;;;;5.52;100.00;96674.50;5133889;27;20034;-74
2023/04/01 04:07:03;;;;;;;1999.90;999.90;;;;;;;5.35;100.00;96662.31;5133527;27;20126;-74
2023/04/01 04:09:30;;;;;;;1999.90;999.90;;;;;;;5.46;100.00;96672.97;5132919;27;20050;-74
2023/04/01 04:11:56;;;;;;;1999.90;999.90;;;;;;;5.45;100.00;96680.28;5133190;27;20024;-74
2023/04/01 04:14:23;;;;;;;1999.90;999.90;;;;;;;5.49;100.00;96685.94;5133378;27;20046;-74
2023/04/01 04:16:48;;;;;;;1999.90;999.90;;;;;;;5.37;100.00;96678.25;5103281;28;20066;-74
2023/04/01 04:19:13;;;;;;;1999.90;999.90;;;;;;;5.46;100.00;96681.09;5112633;28;20055;-74
2023/04/01 04:21:40;;;;;;;1999.90;999.90;;;;;;;5.39;100.00;96676.06;5112404;28;20026;-74
2023/04/01 04:24:06;;;;;;;1999.90;999.90;;;;;;;5.40;100.00;96685.81;5112783;28;20028;-74
2023/04/01 04:26:31;;;;;;;1999.90;999.90;;;;;;;5.36;100.00;96682.88;5112459;28;20486;-74
2023/04/01 04:28:57;;;;;;;1999.90;999.90;;;;;;;5.31;100.00;96696.50;5093907;28;20031;-73
2023/04/01 04:31:24;;;;;;;1999.90;999.90;;;;;;;5.35;100.00;96700.25;5112614;28;20034;-74
2023/04/01 04:33:51;;;;;;;1999.90;999.90;;;;;;;5.31;100.00;96691.09;5112435;28;20019;-74
2023/04/01 04:36:16;;;;;;;1999.90;999.90;;;;;;;5.26;100.00;96699.28;5112266;28;20080;-74
2023/04/01 04:38:42;;;;;;;1999.90;999.90;;;;;;;5.22;100.00;96690.13;5112578;28;20425;-76
2023/04/01 04:41:12;;;;;;;1999.90;999.90;;;;;;;5.21;100.00;96704.78;5112428;28;20015;-76
2023/04/01 04:43:38;;;;;;;1999.90;999.90;;;;;;;5.08;100.00;96707.38;5077635;28;20024;-75
2023/04/01 04:46:08;;;;;;;1999.90;999.90;;;;;;;5.16;100.00;96707.56;5094143;28;20023;-76
2023/04/01 04:48:35;;;;;;;1999.90;999.90;;;;;;;5.13;100.00;96713.56;5111306;28;20110;-76
2023/04/01 04:51:00;;;;;;;1999.90;999.90;;;;;;;5.04;100.00;96726.16;5112805;28;20051;-76
2023/04/01 04:53:26;;;;;;;1999.90;999.90;;;;;;;5.12;100.00;96725.50;5113380;28;20074;-76
2023/04/01 04:55:52;;;;;;;1999.90;999.90;;;;;;;5.09;100.00;96728.78;5112753;28;20039;-74
2023/04/01 04:58:18;;;;;;;1999.90;999.90;;;;;;;5.12;100.00;96730.09;5127037;27;20066;-76
2023/04/01 05:00:44;;;;;;;1999.90;999.90;;;;;;;5.00;100.00;96717.00;5132839;27;20475;-75
2023/04/01 05:03:10;;;;;;;1999.90;999.90;;;;;;;5.10;100.00;96722.28;5132799;27;20102;-76
2023/04/01 05:05:36;;;;;;;1999.90;999.90;;;;;;;5.06;100.00;96718.53;5133587;27;20023;-76
2023/04/01 05:08:01;;;;;;;1999.90;999.90;;;;;;;5.03;100.00;96712.88;5134546;27;20054;-76
2023/04/01 05:10:27;;;;;;;1999.90;999.90;;;;;;;5.12;100.00;96724.69;5133148;27;20020;-75
2023/04/01 05:12:52;;;;;;;1999.90;999.90;;;;;;;5.17;100.00;96733.56;5132782;27;20034;-76
2023/04/01 05:15:18;;;;;;;1999.90;999.90;;;;;;;5.11;100.00;96721.16;5133313;27;20027;-74
2023/04/01 05:17:43;;;;;;;1999.90;999.90;;;;;;;5.26;100.00;96725.59;5132386;27;20023;-76
2023/04/01 05:20:11;;;;;;;1999.90;999.90;;;;;;;5.23;100.00;96720.75;5132923;27;20023;-76
2023/04/01 05:22:36;;;;;;;1999.90;999.90;;;;;;;5.32;100.00;96730.66;5132685;27;20176;-81
2023/04/01 05:25:02;;;;;;;1999.90;999.90;;;;;;;5.36;100.00;96741.69;5114248;27;20114;-76
2023/04/01 05:27:27;;;;;;;1999.90;999.90;;;;;;;5.28;100.00;96734.25;5113978;27;20023;-76
2023/04/01 05:29:52;;;;;;;1999.90;999.90;;;;;;;5.29;100.00;96731.22;5133341;27;20034;-77
2023/04/01 05:32:18;;;;;;;1999.90;999.90;;;;;;;5.21;100.00;96744.63;5133436;27;20080;-77
2023/04/01 05:34:43;;;;;;;1999.90;999.90;;;;;;;5.19;100.00;96739.50;5133787;27;20023;-78
2023/04/01 05:37:09;;;;;;;1999.90;999.90;;;;;;;5.05;100.00;96735.88;5131838;27;20429;-76
2023/04/01 05:39:38;;;;;;;1999.90;999.90;;;;;;;5.10;100.00;96757.50;5132358;27;20031;-76
2023/04/01 05:42:06;;;;;;;1999.90;999.90;;;;;;;5.22;100.00;96754.38;5132348;27;20139;-77
2023/04/01 05:44:31;;;;;;;1999.90;999.90;;;;;;;5.35;100.00;96770.75;5131983;27;20138;-75
2023/04/01 05:46:57;;;;;;;1999.90;999.90;;;;;;;5.26;100.00;96764.34;5132875;27;20051;-76
2023/04/01 05:49:22;;;;;;;1999.90;999.90;;;;;;;5.46;100.00;96776.00;5131861;27;20043;-75
2023/04/01 05:51:48;;;;;;;1999.90;999.90;;;;;;;5.57;100.00;96772.06;5132228;27;20066;-74
2023/04/01 05:54:13;;;;;;;1999.90;999.90;;;;;;;5.67;100.00;96778.16;5097610;27;20026;-76
2023/04/01 05:56:38;;;;;;;1999.90;999.90;;;;;;;5.94;100.00;96782.97;5132643;27;20023;-75
2023/04/01 05:59:04;;;;;;;1999.90;999.90;;;;;;;6.24;100.00;96768.91;5133059;27;20397;-76
2023/04/01 06:01:29;;;;;;;1999.90;999.90;;;;;;;6.42;100.00;96759.09;5134850;27;20027;-76
2023/04/01 06:03:54;;;;;;;1999.90;999.90;;;;;;;6.89;100.00;96766.13;5117341;27;20456;-78
2023/04/01 06:06:24;;;;;;;1999.90;999.90;;;;;;;7.01;100.00;96766.44;5132180;27;20027;-75
2023/04/01 06:08:52;;;;;;;1999.90;999.90;;;;;;;7.13;100.00;96769.44;5131340;27;20070;-76
2023/04/01 06:11:28;;;;;;;1999.90;999.90;;;;;;;7.37;100.00;96783.63;5131580;27;20047;-75
2023/04/01 06:13:54;;;;;;;;;;;;;;;7.36;100.00;96792.91;5132260;28;20072;-76
2023/04/01 06:16:31;;;;;;;;;;;;;;;7.28;100.00;96796.34;5132117;27;20312;-75
2023/04/01 06:19:05;;;;;;;1999.90;999.90;;;;;;;7.30;100.00;96783.22;5132882;28;20316;-77
2023/04/01 06:21:41;;;;;;;1999.90;999.90;;;;;;;7.52;100.00;96771.63;5132093;27;20761;-76
2023/04/01 06:24:21;;;;;;;1999.90;999.90;;;;;;;7.42;100.00;96788.19;5131602;28;20039;-75
2023/04/01 06:26:58;;;;;;;1999.90;999.90;;;;;;;7.43;100.00;96766.09;5114200;28;20050;-76
2023/04/01 06:29:49;;;;;;;1999.90;999.90;;;;;;;7.54;100.00;96781.13;5132288;28;20023;-76
2023/04/01 06:32:18;;;;;;;1999.90;999.90;;;;;;;7.54;100.00;96775.66;5131347;27;20095;-76
2023/04/01 06:34:52;;;;;;;1999.90;999.90;;;;;;;7.68;100.00;96783.78;5131743;28;20035;-75
2023/04/01 06:37:29;;;;;;;1999.90;999.90;;;;;;;7.81;100.00;96780.25;5130702;27;20507;-76
2023/04/01 06:40:10;;;;;;;1999.90;999.90;;;;;;;8.03;100.00;96787.63;5131115;28;20031;-75
2023/04/01 06:43:29;;;;;;;1999.90;999.90;;;;;;;8.28;100.00;96792.50;5131276;28;20027;-76
2023/04/01 06:46:04;;;;;;;1999.90;999.90;;;;;;;8.67;100.00;96793.75;5067981;28;20602;-75
2023/04/01 06:48:32;;;;;;;1999.90;999.90;;;;;;;9.01;100.00;96791.22;5121876;28;20051;-75
2023/04/01 06:51:24;;;;;;;1999.90;999.90;;;;;;;9.38;100.00;96804.34;5131567;28;20103;-75
2023/04/01 06:54:33;;;;;;;1999.90;999.90;;;;;;;9.42;100.00;96804.53;5113469;28;20050;-75
2023/04/01 06:57:41;;;;;;;1999.90;999.90;;;;;;;9.51;100.00;96810.81;5068440;28;20024;-75
2023/04/01 07:00:25;;;;;;;1999.90;999.90;;;;;;;9.50;100.00;96818.19;5129350;28;20058;-76
2023/04/01 07:03:17;;;;;;;1999.90;999.90;;;;;;;9.42;100.00;96812.72;5131767;28;20055;-75
2023/04/01 07:05:42;;;;;;;1999.90;999.90;;;;;;;9.13;100.00;96811.31;5085576;28;20118;-75
2023/04/01 07:08:37;;;;;;;1999.90;999.90;;;;;;;9.16;100.00;96820.78;5130440;27;20122;-76
2023/04/01 07:11:06;;;;;;;1999.90;999.90;;;;;;;9.65;100.00;96823.22;5129171;27;20047;-76
2023/04/01 07:13:40;;;;;;;1999.90;999.90;;;;;;;9.87;100.00;96813.31;5134834;27;20448;-75
2023/04/01 07:16:29;;;;;;;1999.90;999.90;;;;;;;10.01;100.00;96816.72;5116097;27;20052;-75
2023/04/01 07:19:29;;;;;;;1999.90;999.90;;;;;;;10.11;100.00;96819.94;5134300;27;20015;-75
2023/04/01 07:22:00;;;;;;;1999.90;999.90;;;;;;;10.71;100.00;96813.69;5128774;27;20080;-75
2023/04/01 07:24:29;;;;;;;1999.90;999.90;;;;;;;11.13;100.00;96822.91;5134622;27;20027;-76
2023/04/01 07:26:57;;;;;;;1999.90;999.90;;;;;;;11.59;100.00;96820.16;5134013;27;20034;-76
2023/04/01 07:29:24;;;;;;;1999.90;999.90;;;;;;;12.01;100.00;96831.25;5134313;27;20549;-76
2023/04/01 07:31:50;;;;;;;1999.90;999.90;;;;;;;11.76;100.00;96836.53;5134817;27;20019;-76
2023/04/01 07:34:33;;;;;;;1999.90;999.90;;;;;;;12.65;100.00;96838.03;5135947;27;20035;-77
2023/04/01 07:37:16;;;;;;;1999.90;999.90;;;;;;;12.97;100.00;96843.88;5132463;27;20073;-73
2023/04/01 07:40:09;;;;;;;1999.90;999.90;;;;;;;13.34;100.00;96845.63;5134249;27;20027;-74
2023/04/01 07:42:46;;;;;;;1999.90;999.90;;;;;;;13.72;100.00;96846.09;5130485;27;20049;-75
2023/04/01 07:45:42;;;;;;;1999.90;999.90;;;;;;;13.47;100.00;96841.72;5131856;27;20030;-73
2023/04/01 07:48:19;;;;;;;1999.90;999.90;;;;;;;13.21;100.00;96846.72;5132107;27;20030;-75
2023/04/01 07:51:01;;;;;;;1999.90;999.90;;;;;;;12.53;100.00;96840.69;5133607;27;20023;-74
2023/04/01 07:53:43;;;;;;;1999.90;999.90;;;;;;;12.33;100.00;96828.59;5133538;27;20056;-74
2023/04/01 07:56:23;;;;;;;1999.90;999.90;;;;;;;11.96;100.00;96834.19;5134183;27;20122;-76
2023/04/01 07:59:13;;;;;;;1999.90;999.90;;;;;;;12.15;100.00;96831.81;5134293;27;20027;-78
2023/04/01 08:02:06;;;;;;;1999.90;999.90;;;;;;;10.94;100.00;96822.47;5133709;27;20096;-77
2023/04/01 08:04:42;;;;;;;1999.90;999.90;;;;;;;10.61;100.00;96833.97;5133745;27;20031;-80
2023/04/01 08:07:33;;;;;;;1999.90;999.90;;;;;;;11.13;100.00;96839.34;5116011;27;20027;-76
2023/04/01 08:09:58;;;;;;;1999.90;999.90;;;;;;;11.26;100.00;96835.59;5139106;27;20027;-77
2023/04/01 08:12:45;;;;;;;1999.90;999.90;;;;;;;11.60;100.00;96851.09;5138733;27;20027;-77
2023/04/01 08:15:27;;;;;;;1999.90;999.90;;;;;;;11.14;100.00;96830.81;5132324;27;20024;-76
2023/04/01 08:18:01;;;;;;;1999.90;999.90;;;;;;;11.54;100.00;96830.50;5130252;27;20399;-79
2023/04/01 08:20:30;;;;;;;1999.90;999.90;;;;;;;11.87;100.00;96833.44;5132810;27;20019;-78
2023/04/01 08:23:16;;;;;;;1999.90;999.90;;;;;;;12.19;100.00;96838.22;5132147;27;20027;-76
2023/04/01 08:26:20;;;;;;;1999.90;999.90;;;;;;;12.19;100.00;96839.00;5131634;27;20113;-77
2023/04/01 08:28:59;;;;;;;1999.90;999.90;;;;;;;12.23;100.00;96841.91;5114677;27;20035;-74
2023/04/01 08:31:51;;;;;;;1999.90;999.90;;;;;;;12.67;100.00;96833.00;5131951;27;20086;-72
2023/04/01 08:34:25;;;;;;;1999.90;999.90;;;;;;;12.76;100.00;96835.66;5130780;27;20071;-72
2023/04/01 08:37:02;;;;;;;1999.90;999.90;;;;;;;14.44;100.00;96841.72;5129955;27;20026;-72
2023/04/01 08:39:36;;;;;;;1999.90;999.90;;;;;;;15.57;100.00;96846.88;5111039;27;20508;-73
2023/04/01 08:42:19;;;;;;;1999.90;999.90;;;;;;;17.57;92.35;96852.53;5132411;27;20817;-79
2023/04/01 08:45:06;;;;;;;1999.90;999.90;;;;;;;17.30;88.61;96856.31;5139816;27;20046;-85
2023/04/01 08:48:25;;;;;;;1999.90;999.90;;;;;;;17.92;79.55;96864.22;5142458;27;20019;-81
2023/04/01 08:51:16;;;;;;;1999.90;999.90;;;;;;;17.30;79.42;96859.91;5088588;28;20011;-84
2023/04/01 08:53:50;;;;;;;1999.90;999.90;;;;;;;17.12;76.65;96862.31;5067430;28;20036;-85
2023/04/01 08:56:40;;;;;;;1999.90;999.90;;;;;;;16.42;81.48;96860.75;5102173;27;20063;-75
2023/04/01 08:59:20;;;;;;;1999.90;999.90;;;;;;;15.97;83.62;96858.53;5133860;27;20364;-75
2023/04/01 09:01:54;;;;;;;1999.90;999.90;;;;;;;15.63;83.86;96862.00;5133553;27;20054;-74
2023/04/01 09:04:38;;;;;;;1999.90;999.90;;;;;;;14.94;90.27;96857.75;5123803;27;20027;-73
2023/04/01 09:07:21;;;;;;;1999.90;999.90;;;;;;;14.45;91.66;96862.59;5128866;27;20747;-74
2023/04/01 09:10:07;;;;;;;1999.90;999.90;;;;;;;14.72;92.34;96856.31;5142064;27;20622;-77
2023/04/01 09:12:45;;;;;;;1999.90;999.90;;;;;;;13.97;99.44;96851.63;5130608;27;20064;-76
2023/04/01 09:15:25;;;;;;;1999.90;999.90;;;;;;;14.59;92.54;96856.72;5127685;27;20019;-75
2023/04/01 09:18:21;;;;;;;1999.90;999.90;;;;;;;14.55;94.39;96851.09;5128122;27;20076;-76
2023/04/01 09:20:49;;;;;;;1999.90;999.90;;;;;;;14.79;89.75;96856.53;5115314;27;20065;-73
2023/04/01 09:23:37;;;;;;;1999.90;999.90;;;;;;;13.38;98.00;96850.06;5130159;27;20035;-75
2023/04/01 09:26:36;;;;;;;1999.90;999.90;;;;;;;13.22;100.00;96849.13;5130052;27;20031;-75
2023/04/01 09:29:23;;;;;;;1999.90;999.90;;;;;;;14.19;96.98;96853.91;5130509;27;20091;-76
2023/04/01 09:32:27;;;;;;;1999.90;999.90;;;;;;;14.76;91.29;96857.22;5127558;27;20033;-76
2023/04/01 09:35:20;;;;;;;1999.90;999.90;;;;;;;15.45;87.42;96858.75;5074545;27;20119;-75
2023/04/01 09:38:14;;;;;;;1999.90;999.90;;;;;;;15.08;89.48;96862.84;5127600;27;20482;-75
2023/04/01 09:40:40;;;;;;;1999.90;999.90;;;;;;;15.34;88.47;96863.19;5130751;27;20030;-74
2023/04/01 09:43:29;;;;;;;1999.90;999.90;;;;;;;14.38;93.10;96862.34;5130391;27;20019;-76
2023/04/01 09:46:17;;;;;;;1999.90;999.90;;;;;;;14.50;94.53;96865.13;5130986;27;20117;-80
2023/04/01 09:49:01;;;;;;;1999.90;999.90;;;;;;;14.63;94.99;96866.66;5131615;27;20030;-75
2023/04/01 09:51:55;;;;;;;1999.90;999.90;;;;;;;14.29;96.55;96861.66;5130613;27;20043;-75
2023/04/01 09:54:48;;;;;;;1999.90;999.90;;;;;;;14.12;97.29;96867.41;5142445;27;20034;-74
2023/04/01 09:57:33;;;;;;;1999.90;999.90;;;;;;;13.65;100.00;96861.56;5131858;27;20475;-75
2023/04/01 10:00:22;;;;;;;1999.90;999.90;;;;;;;12.83;100.00;96847.72;5132583;27;20031;-73
2023/04/01 10:02:57;;;;;;;1999.90;999.90;;;;;;;12.40;100.00;96847.28;5112918;27;20022;-73
2023/04/01 10:06:01;;;;;;;1999.90;999.90;;;;;;;12.55;100.00;96851.34;5129754;27;20023;-74
2023/04/01 10:08:32;;;;;;;1999.90;999.90;;;;;;;12.59;100.00;96842.09;5131518;27;20556;-76
2023/04/01 10:11:43;;;;;;;1999.90;999.90;;;;;;;12.62;100.00;96852.41;5130141;27;20662;-76
2023/04/01 10:14:30;;;;;;;1999.90;999.90;;;;;;;12.76;100.00;96852.94;5126529;27;20026;-74
2023/04/01 10:17:08;;;;;;;1999.90;999.90;;;;;;;13.10;100.00;96845.53;5123974;28;20414;-75
2023/04/01 10:20:02;;;;;;;1999.90;999.90;;;;;;;13.12;100.00;96851.50;5121866;28;20067;-75
2023/04/01 10:22:52;;;;;;;1999.90;999.90;;;;;;;13.15;100.00;96848.06;5132773;27;20528;-75
2023/04/01 10:25:56;;;;;;;1999.90;999.90;;;;;;;12.87;100.00;96861.56;5132068;28;20048;-75
2023/04/01 10:28:57;;;;;;;1999.90;999.90;;;;;;;12.88;100.00;96852.97;5094101;28;20502;-75
2023/04/01 10:31:44;;;;;;;1999.90;999.90;;;;;;;12.75;100.00;96839.53;5103630;28;20103;-75
2023/04/01 10:34:10;;;;;;;1999.90;999.90;;;;;;;12.81;100.00;96849.97;5129968;27;20042;-76
2023/04/01 10:36:52;;;;;;;1999.90;999.90;;;;;;;12.75;100.00;96845.84;5113855;28;20031;-76
2023/04/01 10:39:34;;;;;;;1999.90;999.90;;;;;;;12.60;100.00;96842.91;5132021;27;20031;-74
2023/04/01 10:42:21;;;;;;;1999.90;999.90;;;;;;;12.32;100.00;96832.47;5130376;28;20110;-76
2023/04/01 10:45:25;;;;;;;1999.90;999.90;;;;;;;11.69;100.00;96836.22;5094943;27;20019;-75
2023/04/01 10:48:14;;;;;;;1999.90;999.90;;;;;;;12.20;100.00;96856.28;5129190;27;20027;-75
2023/04/01 10:50:53;;;;;;;1999.90;999.90;;;;;;;12.66;100.00;96852.53;5133026;27;20027;-75
2023/04/01 10:53:24;;;;;;;1999.90;999.90;;;;;;;12.84;100.00;96835.56;5120641;27;20033;-74
2023/04/01 10:56:12;;;;;;;1999.90;999.90;;;;;;;13.20;100.00;96834.13;5134181;27;20075;-77
2023/04/01 10:59:15;;;;;;;1999.90;999.90;;;;;;;13.66;100.00;96836.47;5134540;27;20031;-75
2023/04/01 11:02:05;;;;;;;1999.90;999.90;;;;;;;14.27;100.00;96830.94;5121727;27;20027;-74
2023/04/01 11:04:36;;;;;;;1999.90;999.90;;;;;;;14.88;98.63;96835.16;5133148;27;20015;-76
2023/04/01 11:07:59;;;;;;;1999.90;999.90;;;;;;;14.40;100.00;96827.06;5133941;27;20024;-75
2023/04/01 11:10:46;;;;;;;1999.90;999.90;;;;;;;15.93;90.33;96822.59;5069551;28;20048;-75
2023/04/01 11:13:25;;;;;;;1999.90;999.90;;;;;;;15.56;89.00;96818.50;5052332;28;20431;-77
2023/04/01 11:16:21;;;;;;;1999.90;999.90;;;;;;;15.50;91.31;96820.75;5122280;27;20035;-74
2023/04/01 11:19:24;;;;;;;1999.90;999.90;;;;;;;15.36;91.29;96819.53;5116552;27;20031;-77
2023/04/01 11:22:17;;;;;;;1999.90;999.90;;;;;;;15.31;93.48;96803.28;5132947;27;20102;-77
2023/04/01 11:25:09;;;;;;;1999.90;999.90;;;;;;;14.70;95.01;96803.56;5132683;27;20031;-76
2023/04/01 11:27:40;;;;;;;1999.90;999.90;;;;;;;14.39;100.00;96800.69;5133799;27;20497;-74